sensor_id;sensor_type;location;lat;lon;timestamp;temperature;humidity
64143;DHT22;50437;51.970;5.904;2023-07-08T00:03:17;21.10;83.40
64143;DHT22;50437;51.970;5.904;2023-07-08T00:05:44;21.10;82.70
64143;DHT22;50437;51.970;5.904;2023-07-08T00:08:14;21.00;83.60
64143;DHT22;50437;51.970;5.904;2023-07-08T00:10:42;21.00;84.50
64143;DHT22;50437;51.970;5.904;2023-07-08T00:13:08;20.90;84.90
64143;DHT22;50437;51.970;5.904;2023-07-08T00:15:35;20.90;84.60
64143;DHT22;50437;51.970;5.904;2023-07-08T00:18:03;20.90;84.40
64143;DHT22;50437;51.970;5.904;2023-07-08T00:20:47;20.90;83.90
64143;DHT22;50437;51.970;5.904;2023-07-08T00:23:14;20.90;85.40
64143;DHT22;50437;51.970;5.904;2023-07-08T00:25:40;20.80;85.20
64143;DHT22;50437;51.970;5.904;2023-07-08T00:30:50;20.80;85.40
64143;DHT22;50437;51.970;5.904;2023-07-08T00:33:18;20.80;86.40
64143;DHT22;50437;51.970;5.904;2023-07-08T00:35:55;20.70;86.20
64143;DHT22;50437;51.970;5.904;2023-07-08T00:38:27;20.60;87.40
64143;DHT22;50437;51.970;5.904;2023-07-08T00:43:54;20.60;88.40
64143;DHT22;50437;51.970;5.904;2023-07-08T00:49:29;20.50;89.00
64143;DHT22;50437;51.970;5.904;2023-07-08T00:51:56;20.40;87.90
64143;DHT22;50437;51.970;5.904;2023-07-08T00:54:22;20.40;89.10
64143;DHT22;50437;51.970;5.904;2023-07-08T00:56:58;20.40;89.10
64143;DHT22;50437;51.970;5.904;2023-07-08T00:59:29;20.40;90.10
64143;DHT22;50437;51.970;5.904;2023-07-08T01:01:57;20.30;90.20
64143;DHT22;50437;51.970;5.904;2023-07-08T01:04:25;20.30;89.80
64143;DHT22;50437;51.970;5.904;2023-07-08T01:06:54;20.30;90.60
64143;DHT22;50437;51.970;5.904;2023-07-08T01:10:01;20.30;90.10
64143;DHT22;50437;51.970;5.904;2023-07-08T01:12:19;20.30;90.20
64143;DHT22;50437;51.970;5.904;2023-07-08T01:14:46;20.20;90.10
64143;DHT22;50437;51.970;5.904;2023-07-08T01:17:21;20.10;90.40
64143;DHT22;50437;51.970;5.904;2023-07-08T01:19:47;20.10;90.40
64143;DHT22;50437;51.970;5.904;2023-07-08T01:22:14;20.10;90.60
64143;DHT22;50437;51.970;5.904;2023-07-08T01:24:42;20.10;90.60
64143;DHT22;50437;51.970;5.904;2023-07-08T01:30:02;20.00;91.20
64143;DHT22;50437;51.970;5.904;2023-07-08T01:32:28;20.00;91.50
64143;DHT22;50437;51.970;5.904;2023-07-08T01:34:55;19.90;91.50
64143;DHT22;50437;51.970;5.904;2023-07-08T01:37:29;19.90;91.90
64143;DHT22;50437;51.970;5.904;2023-07-08T01:39:56;19.80;91.50
64143;DHT22;50437;51.970;5.904;2023-07-08T01:42:21;19.80;92.00
64143;DHT22;50437;51.970;5.904;2023-07-08T01:44:48;19.80;92.40
64143;DHT22;50437;51.970;5.904;2023-07-08T01:47:16;19.70;92.80
64143;DHT22;50437;51.970;5.904;2023-07-08T01:49:43;19.70;93.10
64143;DHT22;50437;51.970;5.904;2023-07-08T01:52:10;19.60;93.40
64143;DHT22;50437;51.970;5.904;2023-07-08T01:54:37;19.60;93.40
64143;DHT22;50437;51.970;5.904;2023-07-08T01:57:04;19.70;93.70
64143;DHT22;50437;51.970;5.904;2023-07-08T01:59:30;19.60;93.70
64143;DHT22;50437;51.970;5.904;2023-07-08T02:01:56;19.50;94.40
64143;DHT22;50437;51.970;5.904;2023-07-08T02:04:23;19.50;94.20
64143;DHT22;50437;51.970;5.904;2023-07-08T02:06:50;19.40;94.30
64143;DHT22;50437;51.970;5.904;2023-07-08T02:09:16;19.50;94.90
64143;DHT22;50437;51.970;5.904;2023-07-08T02:11:42;19.50;94.60
64143;DHT22;50437;51.970;5.904;2023-07-08T02:14:08;19.30;95.50
64143;DHT22;50437;51.970;5.904;2023-07-08T02:16:34;19.30;95.80
64143;DHT22;50437;51.970;5.904;2023-07-08T02:19:00;19.30;96.00
64143;DHT22;50437;51.970;5.904;2023-07-08T02:21:26;19.30;96.50
64143;DHT22;50437;51.970;5.904;2023-07-08T02:23:57;19.30;96.90
64143;DHT22;50437;51.970;5.904;2023-07-08T02:26:23;19.20;97.10
64143;DHT22;50437;51.970;5.904;2023-07-08T02:28:49;19.20;97.60
64143;DHT22;50437;51.970;5.904;2023-07-08T02:31:15;19.10;97.50
64143;DHT22;50437;51.970;5.904;2023-07-08T02:33:41;19.10;98.00
64143;DHT22;50437;51.970;5.904;2023-07-08T02:36:07;19.00;98.90
64143;DHT22;50437;51.970;5.904;2023-07-08T02:38:33;19.10;98.00
64143;DHT22;50437;51.970;5.904;2023-07-08T02:40:59;19.00;98.90
64143;DHT22;50437;51.970;5.904;2023-07-08T02:43:25;19.00;99.00
64143;DHT22;50437;51.970;5.904;2023-07-08T02:45:52;19.00;99.60
64143;DHT22;50437;51.970;5.904;2023-07-08T02:48:18;19.00;99.10
64143;DHT22;50437;51.970;5.904;2023-07-08T02:50:45;19.00;99.90
64143;DHT22;50437;51.970;5.904;2023-07-08T02:53:11;18.90;99.80
64143;DHT22;50437;51.970;5.904;2023-07-08T02:55:38;18.90;99.90
64143;DHT22;50437;51.970;5.904;2023-07-08T02:58:04;18.90;99.90
64143;DHT22;50437;51.970;5.904;2023-07-08T03:00:31;18.80;99.90
64143;DHT22;50437;51.970;5.904;2023-07-08T03:02:58;18.80;99.90
64143;DHT22;50437;51.970;5.904;2023-07-08T03:05:25;18.80;99.90
64143;DHT22;50437;51.970;5.904;2023-07-08T03:07:52;18.80;99.90
64143;DHT22;50437;51.970;5.904;2023-07-08T03:10:17;18.80;99.90
64143;DHT22;50437;51.970;5.904;2023-07-08T03:12:43;18.90;99.90
64143;DHT22;50437;51.970;5.904;2023-07-08T03:15:13;18.80;99.90
64143;DHT22;50437;51.970;5.904;2023-07-08T03:17:39;18.70;99.90
64143;DHT22;50437;51.970;5.904;2023-07-08T03:20:06;18.70;99.90
64143;DHT22;50437;51.970;5.904;2023-07-08T03:22:33;18.70;99.90
64143;DHT22;50437;51.970;5.904;2023-07-08T03:24:59;18.70;99.90
64143;DHT22;50437;51.970;5.904;2023-07-08T03:27:25;18.70;99.90
64143;DHT22;50437;51.970;5.904;2023-07-08T03:30:08;18.60;99.90
64143;DHT22;50437;51.970;5.904;2023-07-08T03:32:35;18.70;99.90
64143;DHT22;50437;51.970;5.904;2023-07-08T03:35:05;18.60;99.90
64143;DHT22;50437;51.970;5.904;2023-07-08T03:40:18;18.70;99.90
64143;DHT22;50437;51.970;5.904;2023-07-08T03:42:49;18.60;99.90
64143;DHT22;50437;51.970;5.904;2023-07-08T03:45:18;18.60;99.90
64143;DHT22;50437;51.970;5.904;2023-07-08T03:47:47;18.60;99.90
64143;DHT22;50437;51.970;5.904;2023-07-08T03:50:35;18.60;99.90
64143;DHT22;50437;51.970;5.904;2023-07-08T03:53:02;18.60;99.90
64143;DHT22;50437;51.970;5.904;2023-07-08T03:58:20;18.60;99.90
64143;DHT22;50437;51.970;5.904;2023-07-08T04:00:46;18.60;99.90
64143;DHT22;50437;51.970;5.904;2023-07-08T04:03:12;18.60;99.90
64143;DHT22;50437;51.970;5.904;2023-07-08T04:05:38;18.60;99.90
64143;DHT22;50437;51.970;5.904;2023-07-08T04:08:04;18.60;99.90
64143;DHT22;50437;51.970;5.904;2023-07-08T04:10:30;18.60;99.90
64143;DHT22;50437;51.970;5.904;2023-07-08T04:12:56;18.60;99.90
64143;DHT22;50437;51.970;5.904;2023-07-08T04:15:22;18.60;99.90
64143;DHT22;50437;51.970;5.904;2023-07-08T04:17:51;18.60;99.90
64143;DHT22;50437;51.970;5.904;2023-07-08T04:20:25;18.50;99.90
64143;DHT22;50437;51.970;5.904;2023-07-08T04:22:51;18.50;99.90
64143;DHT22;50437;51.970;5.904;2023-07-08T04:25:18;18.60;99.90
64143;DHT22;50437;51.970;5.904;2023-07-08T04:27:52;18.60;99.90
64143;DHT22;50437;51.970;5.904;2023-07-08T04:30:22;18.70;99.90
64143;DHT22;50437;51.970;5.904;2023-07-08T04:38:58;18.70;99.90
64143;DHT22;50437;51.970;5.904;2023-07-08T04:41:26;18.80;99.90
64143;DHT22;50437;51.970;5.904;2023-07-08T04:49:34;18.80;99.90
64143;DHT22;50437;51.970;5.904;2023-07-08T04:52:07;18.80;99.90
64143;DHT22;50437;51.970;5.904;2023-07-08T04:54:40;18.70;99.90
64143;DHT22;50437;51.970;5.904;2023-07-08T04:57:07;18.70;99.90
64143;DHT22;50437;51.970;5.904;2023-07-08T04:59:55;18.70;99.90
64143;DHT22;50437;51.970;5.904;2023-07-08T05:02:24;18.80;99.90
64143;DHT22;50437;51.970;5.904;2023-07-08T05:07:41;18.80;99.90
64143;DHT22;50437;51.970;5.904;2023-07-08T05:10:15;18.80;99.90
64143;DHT22;50437;51.970;5.904;2023-07-08T05:12:50;18.70;99.90
64143;DHT22;50437;51.970;5.904;2023-07-08T05:15:22;18.80;99.90
64143;DHT22;50437;51.970;5.904;2023-07-08T05:17:49;18.80;99.90
64143;DHT22;50437;51.970;5.904;2023-07-08T05:20:22;18.90;99.90
64143;DHT22;50437;51.970;5.904;2023-07-08T05:23:01;18.90;99.90
64143;DHT22;50437;51.970;5.904;2023-07-08T05:25:31;19.00;99.90
64143;DHT22;50437;51.970;5.904;2023-07-08T05:28:05;19.00;99.90
64143;DHT22;50437;51.970;5.904;2023-07-08T05:30:34;19.00;99.90
64143;DHT22;50437;51.970;5.904;2023-07-08T05:33:04;19.10;99.90
64143;DHT22;50437;51.970;5.904;2023-07-08T05:35:49;19.10;99.90
64143;DHT22;50437;51.970;5.904;2023-07-08T05:38:26;19.10;99.90
64143;DHT22;50437;51.970;5.904;2023-07-08T05:40:58;19.10;99.90
64143;DHT22;50437;51.970;5.904;2023-07-08T05:49:17;19.30;99.90
64143;DHT22;50437;51.970;5.904;2023-07-08T05:58:00;19.50;99.90
64143;DHT22;50437;51.970;5.904;2023-07-08T06:06:56;19.70;99.90
64143;DHT22;50437;51.970;5.904;2023-07-08T07:43:37;32.80;78.20
64143;DHT22;50437;51.970;5.904;2023-07-08T10:29:34;37.60;59.80
64143;DHT22;50437;51.970;5.904;2023-07-08T11:05:22;37.00;57.40
64143;DHT22;50437;51.970;5.904;2023-07-08T11:08:40;36.90;59.70
64143;DHT22;50437;51.970;5.904;2023-07-08T11:19:41;36.80;60.70
64143;DHT22;50437;51.970;5.904;2023-07-08T11:22:11;36.80;58.40
64143;DHT22;50437;51.970;5.904;2023-07-08T11:24:48;36.80;61.10
64143;DHT22;50437;51.970;5.904;2023-07-08T11:29:46;36.50;59.20
64143;DHT22;50437;51.970;5.904;2023-07-08T11:32:15;36.30;61.50
64143;DHT22;50437;51.970;5.904;2023-07-08T11:34:44;36.50;59.20
64143;DHT22;50437;51.970;5.904;2023-07-08T11:37:12;36.70;63.00
64143;DHT22;50437;51.970;5.904;2023-07-08T11:39:43;36.50;59.80
64143;DHT22;50437;51.970;5.904;2023-07-08T11:42:22;36.70;60.50
64143;DHT22;50437;51.970;5.904;2023-07-08T11:44:53;36.60;60.30
64143;DHT22;50437;51.970;5.904;2023-07-08T11:50:01;36.40;62.70
64143;DHT22;50437;51.970;5.904;2023-07-08T11:52:28;36.30;62.50
64143;DHT22;50437;51.970;5.904;2023-07-08T11:54:56;36.60;61.20
64143;DHT22;50437;51.970;5.904;2023-07-08T11:57:24;36.40;59.10
64143;DHT22;50437;51.970;5.904;2023-07-08T12:02:52;36.10;60.80
64143;DHT22;50437;51.970;5.904;2023-07-08T12:05:28;35.40;60.20
64143;DHT22;50437;51.970;5.904;2023-07-08T12:07:55;35.70;60.00
64143;DHT22;50437;51.970;5.904;2023-07-08T12:13:13;35.70;61.90
64143;DHT22;50437;51.970;5.904;2023-07-08T12:15:40;35.60;60.70
64143;DHT22;50437;51.970;5.904;2023-07-08T12:18:16;35.90;64.40
64143;DHT22;50437;51.970;5.904;2023-07-08T12:20:45;35.90;60.50
64143;DHT22;50437;51.970;5.904;2023-07-08T12:23:13;35.70;58.70
64143;DHT22;50437;51.970;5.904;2023-07-08T12:25:40;35.90;59.30
64143;DHT22;50437;51.970;5.904;2023-07-08T12:28:06;35.60;61.10
64143;DHT22;50437;51.970;5.904;2023-07-08T12:30:34;35.30;57.20
64143;DHT22;50437;51.970;5.904;2023-07-08T12:33:00;35.60;59.50
64143;DHT22;50437;51.970;5.904;2023-07-08T12:35:28;35.40;60.70
64143;DHT22;50437;51.970;5.904;2023-07-08T12:37:55;35.60;58.10
64143;DHT22;50437;51.970;5.904;2023-07-08T12:40:23;35.50;59.30
64143;DHT22;50437;51.970;5.904;2023-07-08T12:42:49;35.70;60.80
64143;DHT22;50437;51.970;5.904;2023-07-08T12:45:16;35.70;57.50
64143;DHT22;50437;51.970;5.904;2023-07-08T12:47:45;35.90;60.50
64143;DHT22;50437;51.970;5.904;2023-07-08T12:50:11;35.90;58.00
64143;DHT22;50437;51.970;5.904;2023-07-08T12:52:45;35.80;57.80
64143;DHT22;50437;51.970;5.904;2023-07-08T12:55:14;36.00;57.40
64143;DHT22;50437;51.970;5.904;2023-07-08T12:57:45;36.00;59.10
64143;DHT22;50437;51.970;5.904;2023-07-08T13:00:19;35.90;56.20
64143;DHT22;50437;51.970;5.904;2023-07-08T13:02:46;35.60;54.60
64143;DHT22;50437;51.970;5.904;2023-07-08T13:05:13;35.80;57.30
64143;DHT22;50437;51.970;5.904;2023-07-08T13:07:40;35.90;52.50
64143;DHT22;50437;51.970;5.904;2023-07-08T13:10:07;35.90;56.90
64143;DHT22;50437;51.970;5.904;2023-07-08T13:12:34;35.80;54.20
64143;DHT22;50437;51.970;5.904;2023-07-08T13:15:03;35.80;55.30
64143;DHT22;50437;51.970;5.904;2023-07-08T13:17:30;35.70;54.20
64143;DHT22;50437;51.970;5.904;2023-07-08T13:19:57;35.70;55.20
64143;DHT22;50437;51.970;5.904;2023-07-08T13:22:32;35.70;56.40
64143;DHT22;50437;51.970;5.904;2023-07-08T13:25:09;35.70;54.80
64143;DHT22;50437;51.970;5.904;2023-07-08T13:27:37;35.60;52.10
64143;DHT22;50437;51.970;5.904;2023-07-08T13:30:17;35.60;57.50
64143;DHT22;50437;51.970;5.904;2023-07-08T13:32:46;35.70;54.70
64143;DHT22;50437;51.970;5.904;2023-07-08T13:38:13;36.00;50.10
64143;DHT22;50437;51.970;5.904;2023-07-08T13:40:43;35.80;53.60
64143;DHT22;50437;51.970;5.904;2023-07-08T13:43:13;35.50;51.40
64143;DHT22;50437;51.970;5.904;2023-07-08T13:45:52;35.50;50.40
64143;DHT22;50437;51.970;5.904;2023-07-08T13:48:27;35.60;51.90
64143;DHT22;50437;51.970;5.904;2023-07-08T13:56:18;36.00;52.10
64143;DHT22;50437;51.970;5.904;2023-07-08T13:58:52;36.10;49.70
64143;DHT22;50437;51.970;5.904;2023-07-08T14:01:20;36.20;51.10
64143;DHT22;50437;51.970;5.904;2023-07-08T14:03:57;36.30;52.60
64143;DHT22;50437;51.970;5.904;2023-07-08T14:06:45;36.30;51.30
64143;DHT22;50437;51.970;5.904;2023-07-08T14:09:21;35.90;53.10
64143;DHT22;50437;51.970;5.904;2023-07-08T14:11:48;35.90;50.20
64143;DHT22;50437;51.970;5.904;2023-07-08T14:14:25;35.70;47.90
64143;DHT22;50437;51.970;5.904;2023-07-08T14:16:52;35.60;47.90
64143;DHT22;50437;51.970;5.904;2023-07-08T14:19:29;35.60;49.30
64143;DHT22;50437;51.970;5.904;2023-07-08T14:22:07;35.70;51.10
64143;DHT22;50437;51.970;5.904;2023-07-08T14:24:45;35.70;51.10
64143;DHT22;50437;51.970;5.904;2023-07-08T14:27:11;35.70;50.70
64143;DHT22;50437;51.970;5.904;2023-07-08T14:29:55;35.70;51.10
64143;DHT22;50437;51.970;5.904;2023-07-08T14:32:28;35.80;52.10
64143;DHT22;50437;51.970;5.904;2023-07-08T14:35:01;35.90;53.10
64143;DHT22;50437;51.970;5.904;2023-07-08T14:37:42;35.90;53.60
64143;DHT22;50437;51.970;5.904;2023-07-08T14:40:18;36.10;52.60
64143;DHT22;50437;51.970;5.904;2023-07-08T14:42:52;36.10;51.40
64143;DHT22;50437;51.970;5.904;2023-07-08T14:45:33;35.70;51.40
64143;DHT22;50437;51.970;5.904;2023-07-08T14:48:17;35.70;51.20
64143;DHT22;50437;51.970;5.904;2023-07-08T14:50:43;35.70;53.20
64143;DHT22;50437;51.970;5.904;2023-07-08T14:53:20;35.90;55.20
64143;DHT22;50437;51.970;5.904;2023-07-08T14:55:59;35.90;49.30
64143;DHT22;50437;51.970;5.904;2023-07-08T14:58:53;35.90;49.20
64143;DHT22;50437;51.970;5.904;2023-07-08T15:01:42;36.00;49.60
64143;DHT22;50437;51.970;5.904;2023-07-08T15:04:31;35.90;49.90
64143;DHT22;50437;51.970;5.904;2023-07-08T15:07:00;35.70;48.10
64143;DHT22;50437;51.970;5.904;2023-07-08T15:09:45;35.80;48.70
64143;DHT22;50437;51.970;5.904;2023-07-08T15:12:21;35.70;49.70
64143;DHT22;50437;51.970;5.904;2023-07-08T15:18:09;35.20;50.00
64143;DHT22;50437;51.970;5.904;2023-07-08T15:21:00;35.20;49.70
64143;DHT22;50437;51.970;5.904;2023-07-08T15:23:29;35.50;49.50
64143;DHT22;50437;51.970;5.904;2023-07-08T15:26:02;35.50;49.40
64143;DHT22;50437;51.970;5.904;2023-07-08T15:28:48;35.30;47.50
64143;DHT22;50437;51.970;5.904;2023-07-08T15:31:20;35.50;52.20
64143;DHT22;50437;51.970;5.904;2023-07-08T15:36:53;35.70;50.80
64143;DHT22;50437;51.970;5.904;2023-07-08T15:39:25;35.80;49.60
64143;DHT22;50437;51.970;5.904;2023-07-08T15:41:57;36.10;50.10
64143;DHT22;50437;51.970;5.904;2023-07-08T15:44:30;36.30;49.10
64143;DHT22;50437;51.970;5.904;2023-07-08T15:47:01;36.30;49.50
64143;DHT22;50437;51.970;5.904;2023-07-08T15:49:51;36.10;47.80
64143;DHT22;50437;51.970;5.904;2023-07-08T15:52:19;35.80;46.80
64143;DHT22;50437;51.970;5.904;2023-07-08T15:54:50;35.60;47.90
64143;DHT22;50437;51.970;5.904;2023-07-08T15:57:19;35.50;49.30
64143;DHT22;50437;51.970;5.904;2023-07-08T16:00:09;35.40;49.40
64143;DHT22;50437;51.970;5.904;2023-07-08T16:02:48;35.20;49.10
64143;DHT22;50437;51.970;5.904;2023-07-08T16:05:26;34.90;51.80
64143;DHT22;50437;51.970;5.904;2023-07-08T16:08:19;34.60;49.90
64143;DHT22;50437;51.970;5.904;2023-07-08T16:10:59;34.40;50.40
64143;DHT22;50437;51.970;5.904;2023-07-08T16:13:43;34.30;49.80
64143;DHT22;50437;51.970;5.904;2023-07-08T16:16:27;34.30;51.00
64143;DHT22;50437;51.970;5.904;2023-07-08T16:19:09;34.10;51.20
64143;DHT22;50437;51.970;5.904;2023-07-08T16:21:58;34.10;52.30
64143;DHT22;50437;51.970;5.904;2023-07-08T16:24:25;34.10;52.40
64143;DHT22;50437;51.970;5.904;2023-07-08T16:26:51;34.30;51.50
64143;DHT22;50437;51.970;5.904;2023-07-08T16:29:20;34.50;51.30
64143;DHT22;50437;51.970;5.904;2023-07-08T16:31:51;34.70;53.10
64143;DHT22;50437;51.970;5.904;2023-07-08T16:34:25;34.50;53.40
64143;DHT22;50437;51.970;5.904;2023-07-08T16:36:51;34.50;53.50
64143;DHT22;50437;51.970;5.904;2023-07-08T16:39:19;34.30;49.80
64143;DHT22;50437;51.970;5.904;2023-07-08T16:41:51;33.90;51.50
64143;DHT22;50437;51.970;5.904;2023-07-08T16:44:24;33.90;54.60
64143;DHT22;50437;51.970;5.904;2023-07-08T16:46:51;33.70;53.20
64143;DHT22;50437;51.970;5.904;2023-07-08T16:49:17;33.70;51.60
64143;DHT22;50437;51.970;5.904;2023-07-08T16:51:46;33.70;53.70
64143;DHT22;50437;51.970;5.904;2023-07-08T16:54:16;33.70;53.40
64143;DHT22;50437;51.970;5.904;2023-07-08T16:56:47;33.60;53.50
64143;DHT22;50437;51.970;5.904;2023-07-08T16:59:14;33.50;53.10
64143;DHT22;50437;51.970;5.904;2023-07-08T17:01:44;33.50;55.10
64143;DHT22;50437;51.970;5.904;2023-07-08T17:04:11;33.50;56.00
64143;DHT22;50437;51.970;5.904;2023-07-08T17:06:40;33.50;56.50
64143;DHT22;50437;51.970;5.904;2023-07-08T17:09:08;33.50;56.10
64143;DHT22;50437;51.970;5.904;2023-07-08T17:11:41;33.50;55.80
64143;DHT22;50437;51.970;5.904;2023-07-08T17:14:07;33.50;57.50
64143;DHT22;50437;51.970;5.904;2023-07-08T17:16:37;33.50;56.20
64143;DHT22;50437;51.970;5.904;2023-07-08T17:19:07;33.50;55.40
64143;DHT22;50437;51.970;5.904;2023-07-08T17:21:37;33.40;55.50
64143;DHT22;50437;51.970;5.904;2023-07-08T17:24:03;33.30;55.50
64143;DHT22;50437;51.970;5.904;2023-07-08T17:26:32;33.60;56.70
64143;DHT22;50437;51.970;5.904;2023-07-08T17:29:04;33.50;55.40
64143;DHT22;50437;51.970;5.904;2023-07-08T17:31:36;33.60;55.80
64143;DHT22;50437;51.970;5.904;2023-07-08T17:34:21;33.60;57.00
64143;DHT22;50437;51.970;5.904;2023-07-08T17:36:50;33.60;56.80
64143;DHT22;50437;51.970;5.904;2023-07-08T17:39:21;33.60;58.30
64143;DHT22;50437;51.970;5.904;2023-07-08T17:41:55;33.50;58.30
64143;DHT22;50437;51.970;5.904;2023-07-08T17:44:26;33.40;58.10
64143;DHT22;50437;51.970;5.904;2023-07-08T17:46:55;33.40;57.70
64143;DHT22;50437;51.970;5.904;2023-07-08T17:49:21;33.50;59.20
64143;DHT22;50437;51.970;5.904;2023-07-08T17:51:48;33.40;58.00
64143;DHT22;50437;51.970;5.904;2023-07-08T17:54:16;33.30;58.30
64143;DHT22;50437;51.970;5.904;2023-07-08T17:56:44;33.10;58.50
64143;DHT22;50437;51.970;5.904;2023-07-08T17:59:19;33.00;60.20
64143;DHT22;50437;51.970;5.904;2023-07-08T18:01:46;33.10;58.60
64143;DHT22;50437;51.970;5.904;2023-07-08T18:04:15;33.00;60.60
64143;DHT22;50437;51.970;5.904;2023-07-08T18:06:48;32.80;61.10
64143;DHT22;50437;51.970;5.904;2023-07-08T18:09:14;32.70;61.10
64143;DHT22;50437;51.970;5.904;2023-07-08T18:11:51;32.50;61.50
64143;DHT22;50437;51.970;5.904;2023-07-08T18:14:24;32.50;61.50
64143;DHT22;50437;51.970;5.904;2023-07-08T18:17:14;32.40;61.50
64143;DHT22;50437;51.970;5.904;2023-07-08T18:19:46;32.20;62.50
64143;DHT22;50437;51.970;5.904;2023-07-08T18:22:15;32.10;61.20
64143;DHT22;50437;51.970;5.904;2023-07-08T18:24:45;31.80;61.50
64143;DHT22;50437;51.970;5.904;2023-07-08T18:27:15;31.80;61.40
64143;DHT22;50437;51.970;5.904;2023-07-08T18:29:47;31.70;63.20
64143;DHT22;50437;51.970;5.904;2023-07-08T18:32:24;31.60;64.30
64143;DHT22;50437;51.970;5.904;2023-07-08T18:34:53;31.50;63.90
64143;DHT22;50437;51.970;5.904;2023-07-08T18:37:20;31.60;64.20
64143;DHT22;50437;51.970;5.904;2023-07-08T18:39:48;31.50;64.50
64143;DHT22;50437;51.970;5.904;2023-07-08T18:42:17;31.40;64.90
64143;DHT22;50437;51.970;5.904;2023-07-08T18:44:51;31.40;65.60
64143;DHT22;50437;51.970;5.904;2023-07-08T18:47:17;31.20;65.70
64143;DHT22;50437;51.970;5.904;2023-07-08T18:49:52;31.20;66.60
64143;DHT22;50437;51.970;5.904;2023-07-08T18:52:21;31.10;68.70
64143;DHT22;50437;51.970;5.904;2023-07-08T18:54:52;30.80;69.50
64143;DHT22;50437;51.970;5.904;2023-07-08T18:57:19;30.70;68.90
64143;DHT22;50437;51.970;5.904;2023-07-08T18:59:45;30.70;67.60
64143;DHT22;50437;51.970;5.904;2023-07-08T19:02:32;30.70;66.40
64143;DHT22;50437;51.970;5.904;2023-07-08T19:04:59;30.70;66.90
64143;DHT22;50437;51.970;5.904;2023-07-08T19:07:28;30.60;66.80
64143;DHT22;50437;51.970;5.904;2023-07-08T19:10:00;30.50;67.10
64143;DHT22;50437;51.970;5.904;2023-07-08T19:12:26;30.50;69.00
64143;DHT22;50437;51.970;5.904;2023-07-08T19:14:54;30.50;70.30
64143;DHT22;50437;51.970;5.904;2023-07-08T19:17:24;30.40;70.70
64143;DHT22;50437;51.970;5.904;2023-07-08T19:19:56;30.30;70.70
64143;DHT22;50437;51.970;5.904;2023-07-08T19:22:29;30.30;71.10
64143;DHT22;50437;51.970;5.904;2023-07-08T19:24:57;30.20;72.90
64143;DHT22;50437;51.970;5.904;2023-07-08T19:27:26;30.00;72.70
64143;DHT22;50437;51.970;5.904;2023-07-08T19:29:55;29.90;73.10
64143;DHT22;50437;51.970;5.904;2023-07-08T19:32:22;29.90;74.40
64143;DHT22;50437;51.970;5.904;2023-07-08T19:34:51;29.80;75.30
64143;DHT22;50437;51.970;5.904;2023-07-08T19:37:23;29.80;76.10
64143;DHT22;50437;51.970;5.904;2023-07-08T19:39:50;29.60;76.50
64143;DHT22;50437;51.970;5.904;2023-07-08T19:42:22;29.50;76.70
64143;DHT22;50437;51.970;5.904;2023-07-08T19:44:52;29.60;77.20
64143;DHT22;50437;51.970;5.904;2023-07-08T19:47:19;29.40;78.70
64143;DHT22;50437;51.970;5.904;2023-07-08T19:52:17;29.10;81.10
64143;DHT22;50437;51.970;5.904;2023-07-08T19:54:45;29.00;82.10
64143;DHT22;50437;51.970;5.904;2023-07-08T19:57:12;29.00;82.20
64143;DHT22;50437;51.970;5.904;2023-07-08T19:59:43;28.90;82.80
64143;DHT22;50437;51.970;5.904;2023-07-08T20:02:13;28.90;83.20
64143;DHT22;50437;51.970;5.904;2023-07-08T20:04:40;28.80;84.20
64143;DHT22;50437;51.970;5.904;2023-07-08T20:07:10;28.70;84.00
64143;DHT22;50437;51.970;5.904;2023-07-08T20:09:38;28.60;83.50
64143;DHT22;50437;51.970;5.904;2023-07-08T20:12:12;28.50;84.10
64143;DHT22;50437;51.970;5.904;2023-07-08T20:14:43;28.40;85.10
64143;DHT22;50437;51.970;5.904;2023-07-08T20:17:13;28.40;84.90
64143;DHT22;50437;51.970;5.904;2023-07-08T20:19:40;28.40;85.80
64143;DHT22;50437;51.970;5.904;2023-07-08T20:22:11;28.20;87.90
64143;DHT22;50437;51.970;5.904;2023-07-08T20:24:39;28.10;87.80
64143;DHT22;50437;51.970;5.904;2023-07-08T20:27:08;28.10;89.10
64143;DHT22;50437;51.970;5.904;2023-07-08T20:29:38;28.00;90.00
64143;DHT22;50437;51.970;5.904;2023-07-08T20:32:04;27.90;90.10
64143;DHT22;50437;51.970;5.904;2023-07-08T20:34:30;27.90;90.10
64143;DHT22;50437;51.970;5.904;2023-07-08T20:36:57;27.80;91.10
64143;DHT22;50437;51.970;5.904;2023-07-08T20:39:23;27.80;91.70
64143;DHT22;50437;51.970;5.904;2023-07-08T20:41:53;27.70;92.30
64143;DHT22;50437;51.970;5.904;2023-07-08T20:44:21;27.60;93.10
64143;DHT22;50437;51.970;5.904;2023-07-08T20:46:48;27.40;94.00
64143;DHT22;50437;51.970;5.904;2023-07-08T20:49:15;27.40;94.10
64143;DHT22;50437;51.970;5.904;2023-07-08T20:51:42;27.30;94.90
64143;DHT22;50437;51.970;5.904;2023-07-08T20:54:12;27.40;95.10
64143;DHT22;50437;51.970;5.904;2023-07-08T20:56:40;27.50;95.40
64143;DHT22;50437;51.970;5.904;2023-07-08T20:59:17;27.30;95.70
64143;DHT22;50437;51.970;5.904;2023-07-08T21:01:47;27.20;96.00
64143;DHT22;50437;51.970;5.904;2023-07-08T21:04:13;27.10;96.80
64143;DHT22;50437;51.970;5.904;2023-07-08T21:06:39;27.10;97.10
64143;DHT22;50437;51.970;5.904;2023-07-08T21:09:05;27.00;98.00
64143;DHT22;50437;51.970;5.904;2023-07-08T21:11:31;27.00;98.20
64143;DHT22;50437;51.970;5.904;2023-07-08T21:13:58;26.90;98.90
64143;DHT22;50437;51.970;5.904;2023-07-08T21:16:28;26.90;99.10
64143;DHT22;50437;51.970;5.904;2023-07-08T21:18:55;26.90;99.90
64143;DHT22;50437;51.970;5.904;2023-07-08T21:21:22;26.90;99.90
64143;DHT22;50437;51.970;5.904;2023-07-08T21:23:49;26.70;99.90
64143;DHT22;50437;51.970;5.904;2023-07-08T21:26:20;26.70;99.90
64143;DHT22;50437;51.970;5.904;2023-07-08T21:28:50;26.70;99.90
64143;DHT22;50437;51.970;5.904;2023-07-08T21:31:19;26.60;99.90
64143;DHT22;50437;51.970;5.904;2023-07-08T21:33:45;26.50;99.90
64143;DHT22;50437;51.970;5.904;2023-07-08T21:36:28;26.50;99.90
64143;DHT22;50437;51.970;5.904;2023-07-08T21:39:17;26.50;99.90
64143;DHT22;50437;51.970;5.904;2023-07-08T21:41:41;26.60;99.90
64143;DHT22;50437;51.970;5.904;2023-07-08T21:44:11;26.50;99.90
64143;DHT22;50437;51.970;5.904;2023-07-08T21:46:38;26.40;99.90
64143;DHT22;50437;51.970;5.904;2023-07-08T21:49:08;26.30;99.90
64143;DHT22;50437;51.970;5.904;2023-07-08T21:51:35;26.10;99.90
64143;DHT22;50437;51.970;5.904;2023-07-08T21:54:04;26.20;99.90
64143;DHT22;50437;51.970;5.904;2023-07-08T21:56:30;26.10;99.90
64143;DHT22;50437;51.970;5.904;2023-07-08T21:58:56;26.20;99.90
64143;DHT22;50437;51.970;5.904;2023-07-08T22:01:23;26.00;99.90
64143;DHT22;50437;51.970;5.904;2023-07-08T22:03:50;26.00;99.90
64143;DHT22;50437;51.970;5.904;2023-07-08T22:06:17;25.90;99.90
64143;DHT22;50437;51.970;5.904;2023-07-08T22:08:44;25.80;99.90
64143;DHT22;50437;51.970;5.904;2023-07-08T22:11:16;25.70;99.90